sensor_id;sensor_type;location;lat;lon;timestamp;P1;durP1;ratioP1;P2;durP2;ratioP2
19554;SDS011;9924;50.828;6.440;2023-08-07T00:00:22;9.95;;;3.08;;
19554;SDS011;9924;50.828;6.440;2023-08-07T00:02:48;13.60;;;2.83;;
19554;SDS011;9924;50.828;6.440;2023-08-07T00:05:14;13.07;;;3.10;;
19554;SDS011;9924;50.828;6.440;2023-08-07T00:07:41;9.50;;;2.60;;
19554;SDS011;9924;50.828;6.440;2023-08-07T00:10:07;10.75;;;2.63;;
19554;SDS011;9924;50.828;6.440;2023-08-07T00:12:33;12.13;;;2.63;;
19554;SDS011;9924;50.828;6.440;2023-08-07T00:14:59;14.00;;;3.10;;
19554;SDS011;9924;50.828;6.440;2023-08-07T00:17:25;14.52;;;3.35;;
19554;SDS011;9924;50.828;6.440;2023-08-07T00:19:51;11.20;;;2.60;;
19554;SDS011;9924;50.828;6.440;2023-08-07T00:22:17;9.20;;;2.90;;
19554;SDS011;9924;50.828;6.440;2023-08-07T00:24:42;13.18;;;2.80;;
19554;SDS011;9924;50.828;6.440;2023-08-07T00:27:08;19.27;;;3.30;;
19554;SDS011;9924;50.828;6.440;2023-08-07T00:29:35;18.42;;;4.45;;
19554;SDS011;9924;50.828;6.440;2023-08-07T00:32:01;12.05;;;3.55;;
19554;SDS011;9924;50.828;6.440;2023-08-07T00:34:28;12.00;;;3.15;;
19554;SDS011;9924;50.828;6.440;2023-08-07T00:36:54;13.70;;;2.80;;
19554;SDS011;9924;50.828;6.440;2023-08-07T00:39:19;10.75;;;3.30;;
19554;SDS011;9924;50.828;6.440;2023-08-07T00:41:45;15.80;;;3.00;;
19554;SDS011;9924;50.828;6.440;2023-08-07T00:44:11;12.00;;;3.38;;
19554;SDS011;9924;50.828;6.440;2023-08-07T00:46:36;14.90;;;3.40;;
19554;SDS011;9924;50.828;6.440;2023-08-07T00:49:04;14.25;;;2.50;;
19554;SDS011;9924;50.828;6.440;2023-08-07T00:51:31;15.57;;;3.28;;
19554;SDS011;9924;50.828;6.440;2023-08-07T00:53:57;10.82;;;2.80;;
19554;SDS011;9924;50.828;6.440;2023-08-07T00:56:25;11.20;;;2.55;;
19554;SDS011;9924;50.828;6.440;2023-08-07T00:58:51;10.85;;;2.70;;
19554;SDS011;9924;50.828;6.440;2023-08-07T01:01:17;15.25;;;3.00;;
19554;SDS011;9924;50.828;6.440;2023-08-07T01:03:43;11.57;;;3.17;;
19554;SDS011;9924;50.828;6.440;2023-08-07T01:06:09;10.90;;;2.60;;
19554;SDS011;9924;50.828;6.440;2023-08-07T01:08:35;8.27;;;2.67;;
19554;SDS011;9924;50.828;6.440;2023-08-07T01:13:54;11.90;;;3.20;;
19554;SDS011;9924;50.828;6.440;2023-08-07T01:16:26;11.60;;;3.15;;
19554;SDS011;9924;50.828;6.440;2023-08-07T01:18:58;10.32;;;3.17;;
19554;SDS011;9924;50.828;6.440;2023-08-07T01:21:26;7.57;;;2.65;;
19554;SDS011;9924;50.828;6.440;2023-08-07T01:23:52;11.60;;;3.28;;
19554;SDS011;9924;50.828;6.440;2023-08-07T01:26:18;9.18;;;2.38;;
19554;SDS011;9924;50.828;6.440;2023-08-07T01:28:58;14.00;;;3.03;;
19554;SDS011;9924;50.828;6.440;2023-08-07T01:31:37;6.75;;;3.08;;
19554;SDS011;9924;50.828;6.440;2023-08-07T01:34:05;11.63;;;2.80;;
19554;SDS011;9924;50.828;6.440;2023-08-07T01:36:33;13.20;;;3.97;;
19554;SDS011;9924;50.828;6.440;2023-08-07T01:39:00;10.35;;;3.22;;
19554;SDS011;9924;50.828;6.440;2023-08-07T01:41:28;13.57;;;3.00;;
19554;SDS011;9924;50.828;6.440;2023-08-07T01:43:55;14.85;;;2.90;;
19554;SDS011;9924;50.828;6.440;2023-08-07T01:46:20;13.57;;;4.18;;
19554;SDS011;9924;50.828;6.440;2023-08-07T01:48:46;14.52;;;2.92;;
19554;SDS011;9924;50.828;6.440;2023-08-07T01:51:12;12.35;;;3.42;;
19554;SDS011;9924;50.828;6.440;2023-08-07T01:53:37;8.13;;;2.90;;
19554;SDS011;9924;50.828;6.440;2023-08-07T01:56:03;13.02;;;2.88;;
19554;SDS011;9924;50.828;6.440;2023-08-07T01:58:29;10.90;;;2.95;;
19554;SDS011;9924;50.828;6.440;2023-08-07T02:00:54;12.40;;;3.28;;
19554;SDS011;9924;50.828;6.440;2023-08-07T02:03:20;10.45;;;2.70;;
19554;SDS011;9924;50.828;6.440;2023-08-07T02:05:46;13.63;;;2.95;;
19554;SDS011;9924;50.828;6.440;2023-08-07T02:08:12;9.93;;;3.00;;
19554;SDS011;9924;50.828;6.440;2023-08-07T02:10:42;12.65;;;3.58;;
19554;SDS011;9924;50.828;6.440;2023-08-07T02:13:08;14.13;;;2.95;;
19554;SDS011;9924;50.828;6.440;2023-08-07T02:15:34;13.20;;;2.85;;
19554;SDS011;9924;50.828;6.440;2023-08-07T02:18:00;10.25;;;3.00;;
19554;SDS011;9924;50.828;6.440;2023-08-07T02:20:25;5.70;;;2.22;;
19554;SDS011;9924;50.828;6.440;2023-08-07T02:22:51;9.75;;;2.78;;
19554;SDS011;9924;50.828;6.440;2023-08-07T02:25:17;10.70;;;3.10;;
19554;SDS011;9924;50.828;6.440;2023-08-07T02:27:42;8.75;;;2.80;;
19554;SDS011;9924;50.828;6.440;2023-08-07T02:30:08;8.40;;;2.90;;
19554;SDS011;9924;50.828;6.440;2023-08-07T02:32:34;11.20;;;2.60;;
19554;SDS011;9924;50.828;6.440;2023-08-07T02:35:00;8.23;;;2.30;;
19554;SDS011;9924;50.828;6.440;2023-08-07T02:37:26;11.13;;;2.72;;
19554;SDS011;9924;50.828;6.440;2023-08-07T02:39:51;8.30;;;3.15;;
19554;SDS011;9924;50.828;6.440;2023-08-07T02:42:18;12.77;;;2.80;;
19554;SDS011;9924;50.828;6.440;2023-08-07T02:44:44;7.97;;;2.72;;
19554;SDS011;9924;50.828;6.440;2023-08-07T02:47:10;7.97;;;2.60;;
19554;SDS011;9924;50.828;6.440;2023-08-07T02:49:35;17.00;;;3.03;;
19554;SDS011;9924;50.828;6.440;2023-08-07T02:52:01;10.68;;;2.53;;
19554;SDS011;9924;50.828;6.440;2023-08-07T02:54:27;9.00;;;3.20;;
19554;SDS011;9924;50.828;6.440;2023-08-07T02:56:53;14.35;;;3.08;;
19554;SDS011;9924;50.828;6.440;2023-08-07T02:59:18;12.07;;;2.72;;
19554;SDS011;9924;50.828;6.440;2023-08-07T03:01:44;12.23;;;3.00;;
19554;SDS011;9924;50.828;6.440;2023-08-07T03:04:10;8.88;;;2.85;;
19554;SDS011;9924;50.828;6.440;2023-08-07T03:06:36;5.95;;;2.20;;
19554;SDS011;9924;50.828;6.440;2023-08-07T03:09:01;14.88;;;3.00;;
19554;SDS011;9924;50.828;6.440;2023-08-07T03:11:27;11.40;;;2.85;;
19554;SDS011;9924;50.828;6.440;2023-08-07T03:13:53;8.55;;;2.40;;
19554;SDS011;9924;50.828;6.440;2023-08-07T03:16:19;8.27;;;2.65;;
19554;SDS011;9924;50.828;6.440;2023-08-07T03:18:44;10.75;;;2.83;;
19554;SDS011;9924;50.828;6.440;2023-08-07T03:21:11;8.50;;;2.70;;
19554;SDS011;9924;50.828;6.440;2023-08-07T03:23:37;9.73;;;2.63;;
19554;SDS011;9924;50.828;6.440;2023-08-07T03:26:03;6.53;;;2.88;;
19554;SDS011;9924;50.828;6.440;2023-08-07T03:28:30;9.32;;;2.67;;
19554;SDS011;9924;50.828;6.440;2023-08-07T03:30:57;8.32;;;3.00;;
19554;SDS011;9924;50.828;6.440;2023-08-07T03:33:23;15.68;;;3.03;;
19554;SDS011;9924;50.828;6.440;2023-08-07T03:35:49;9.90;;;3.22;;
19554;SDS011;9924;50.828;6.440;2023-08-07T03:38:14;9.65;;;3.00;;
19554;SDS011;9924;50.828;6.440;2023-08-07T03:40:40;9.82;;;2.83;;
19554;SDS011;9924;50.828;6.440;2023-08-07T03:43:06;14.82;;;3.83;;
19554;SDS011;9924;50.828;6.440;2023-08-07T03:45:31;8.25;;;2.78;;
19554;SDS011;9924;50.828;6.440;2023-08-07T03:47:57;9.75;;;3.90;;
19554;SDS011;9924;50.828;6.440;2023-08-07T03:50:22;9.13;;;3.10;;
19554;SDS011;9924;50.828;6.440;2023-08-07T03:52:48;10.38;;;3.05;;
19554;SDS011;9924;50.828;6.440;2023-08-07T03:55:14;11.90;;;3.00;;
19554;SDS011;9924;50.828;6.440;2023-08-07T03:57:39;9.65;;;3.00;;
19554;SDS011;9924;50.828;6.440;2023-08-07T04:00:05;13.55;;;3.58;;
19554;SDS011;9924;50.828;6.440;2023-08-07T04:02:32;12.18;;;3.13;;
19554;SDS011;9924;50.828;6.440;2023-08-07T04:04:58;13.65;;;3.20;;
19554;SDS011;9924;50.828;6.440;2023-08-07T04:07:24;9.32;;;2.90;;
19554;SDS011;9924;50.828;6.440;2023-08-07T04:09:49;8.73;;;2.72;;
19554;SDS011;9924;50.828;6.440;2023-08-07T04:12:15;11.15;;;3.40;;
19554;SDS011;9924;50.828;6.440;2023-08-07T04:14:41;16.23;;;3.25;;
19554;SDS011;9924;50.828;6.440;2023-08-07T04:17:06;10.38;;;3.03;;
19554;SDS011;9924;50.828;6.440;2023-08-07T04:19:32;10.25;;;3.83;;
19554;SDS011;9924;50.828;6.440;2023-08-07T04:21:58;9.63;;;3.28;;
19554;SDS011;9924;50.828;6.440;2023-08-07T04:24:24;7.95;;;2.72;;
19554;SDS011;9924;50.828;6.440;2023-08-07T04:26:50;11.40;;;2.60;;
19554;SDS011;9924;50.828;6.440;2023-08-07T04:29:15;6.88;;;2.63;;
19554;SDS011;9924;50.828;6.440;2023-08-07T04:31:41;7.18;;;2.95;;
19554;SDS011;9924;50.828;6.440;2023-08-07T04:34:07;5.47;;;2.60;;
19554;SDS011;9924;50.828;6.440;2023-08-07T04:36:33;8.35;;;2.80;;
19554;SDS011;9924;50.828;6.440;2023-08-07T04:38:59;7.85;;;2.42;;
19554;SDS011;9924;50.828;6.440;2023-08-07T04:41:25;8.68;;;2.63;;
19554;SDS011;9924;50.828;6.440;2023-08-07T04:43:50;9.88;;;2.22;;
19554;SDS011;9924;50.828;6.440;2023-08-07T04:46:16;12.00;;;3.08;;
19554;SDS011;9924;50.828;6.440;2023-08-07T04:48:42;10.60;;;2.75;;
19554;SDS011;9924;50.828;6.440;2023-08-07T04:51:08;9.70;;;2.78;;
19554;SDS011;9924;50.828;6.440;2023-08-07T04:53:33;6.95;;;2.33;;
19554;SDS011;9924;50.828;6.440;2023-08-07T04:55:59;9.48;;;2.65;;
19554;SDS011;9924;50.828;6.440;2023-08-07T04:58:26;4.05;;;2.10;;
19554;SDS011;9924;50.828;6.440;2023-08-07T05:00:58;11.35;;;3.28;;
19554;SDS011;9924;50.828;6.440;2023-08-07T05:03:25;10.00;;;2.75;;
19554;SDS011;9924;50.828;6.440;2023-08-07T05:06:01;8.43;;;2.40;;
19554;SDS011;9924;50.828;6.440;2023-08-07T05:08:27;8.10;;;3.35;;
19554;SDS011;9924;50.828;6.440;2023-08-07T05:10:53;10.10;;;2.75;;
19554;SDS011;9924;50.828;6.440;2023-08-07T05:13:18;8.68;;;3.25;;
19554;SDS011;9924;50.828;6.440;2023-08-07T05:15:46;7.97;;;2.40;;
19554;SDS011;9924;50.828;6.440;2023-08-07T05:18:12;6.50;;;2.35;;
19554;SDS011;9924;50.828;6.440;2023-08-07T05:20:38;9.82;;;2.55;;
19554;SDS011;9924;50.828;6.440;2023-08-07T05:23:04;10.23;;;2.80;;
19554;SDS011;9924;50.828;6.440;2023-08-07T05:25:30;6.53;;;2.30;;
19554;SDS011;9924;50.828;6.440;2023-08-07T05:27:55;6.63;;;2.20;;
19554;SDS011;9924;50.828;6.440;2023-08-07T05:30:21;8.55;;;3.03;;
19554;SDS011;9924;50.828;6.440;2023-08-07T05:32:47;9.55;;;2.17;;
19554;SDS011;9924;50.828;6.440;2023-08-07T05:35:13;8.77;;;2.40;;
19554;SDS011;9924;50.828;6.440;2023-08-07T05:37:39;7.32;;;2.50;;
19554;SDS011;9924;50.828;6.440;2023-08-07T05:40:05;7.72;;;2.67;;
19554;SDS011;9924;50.828;6.440;2023-08-07T05:42:31;9.02;;;2.28;;
19554;SDS011;9924;50.828;6.440;2023-08-07T05:44:58;12.10;;;2.55;;
19554;SDS011;9924;50.828;6.440;2023-08-07T05:47:24;8.75;;;2.15;;
19554;SDS011;9924;50.828;6.440;2023-08-07T05:49:50;11.23;;;2.65;;
19554;SDS011;9924;50.828;6.440;2023-08-07T05:52:16;9.93;;;2.20;;
19554;SDS011;9924;50.828;6.440;2023-08-07T05:54:42;9.07;;;2.63;;
19554;SDS011;9924;50.828;6.440;2023-08-07T05:57:08;9.02;;;2.60;;
19554;SDS011;9924;50.828;6.440;2023-08-07T05:59:34;9.45;;;2.33;;
19554;SDS011;9924;50.828;6.440;2023-08-07T06:02:01;7.72;;;2.20;;
19554;SDS011;9924;50.828;6.440;2023-08-07T06:04:27;10.25;;;2.33;;
19554;SDS011;9924;50.828;6.440;2023-08-07T06:06:53;5.88;;;2.67;;
19554;SDS011;9924;50.828;6.440;2023-08-07T06:09:19;8.38;;;2.83;;
19554;SDS011;9924;50.828;6.440;2023-08-07T06:11:46;6.03;;;2.25;;
19554;SDS011;9924;50.828;6.440;2023-08-07T06:14:12;8.95;;;2.60;;
19554;SDS011;9924;50.828;6.440;2023-08-07T06:16:38;10.32;;;2.83;;
19554;SDS011;9924;50.828;6.440;2023-08-07T06:19:04;6.78;;;2.58;;
19554;SDS011;9924;50.828;6.440;2023-08-07T06:21:30;9.75;;;2.25;;
19554;SDS011;9924;50.828;6.440;2023-08-07T06:23:56;5.75;;;2.63;;
19554;SDS011;9924;50.828;6.440;2023-08-07T06:26:22;5.32;;;2.65;;
19554;SDS011;9924;50.828;6.440;2023-08-07T06:28:47;5.18;;;2.50;;
19554;SDS011;9924;50.828;6.440;2023-08-07T06:31:15;7.10;;;2.60;;
19554;SDS011;9924;50.828;6.440;2023-08-07T06:33:41;10.70;;;2.53;;
19554;SDS011;9924;50.828;6.440;2023-08-07T06:36:07;5.68;;;2.30;;
19554;SDS011;9924;50.828;6.440;2023-08-07T06:38:35;8.57;;;2.75;;
19554;SDS011;9924;50.828;6.440;2023-08-07T06:41:01;5.75;;;2.28;;
19554;SDS011;9924;50.828;6.440;2023-08-07T06:43:27;7.75;;;2.20;;
19554;SDS011;9924;50.828;6.440;2023-08-07T06:45:55;6.97;;;2.20;;
19554;SDS011;9924;50.828;6.440;2023-08-07T06:48:22;9.57;;;2.45;;
19554;SDS011;9924;50.828;6.440;2023-08-07T06:50:48;6.60;;;2.63;;
19554;SDS011;9924;50.828;6.440;2023-08-07T06:53:15;6.80;;;2.60;;
19554;SDS011;9924;50.828;6.440;2023-08-07T06:55:41;5.22;;;2.30;;
19554;SDS011;9924;50.828;6.440;2023-08-07T06:58:08;13.23;;;2.50;;
19554;SDS011;9924;50.828;6.440;2023-08-07T07:00:34;8.25;;;2.20;;
19554;SDS011;9924;50.828;6.440;2023-08-07T07:03:00;9.50;;;2.72;;
19554;SDS011;9924;50.828;6.440;2023-08-07T07:05:26;8.57;;;2.90;;
19554;SDS011;9924;50.828;6.440;2023-08-07T07:07:52;6.35;;;2.40;;
19554;SDS011;9924;50.828;6.440;2023-08-07T07:10:19;8.45;;;2.35;;
19554;SDS011;9924;50.828;6.440;2023-08-07T07:12:45;6.57;;;2.75;;
19554;SDS011;9924;50.828;6.440;2023-08-07T07:15:11;6.88;;;2.55;;
19554;SDS011;9924;50.828;6.440;2023-08-07T07:17:37;11.40;;;2.90;;
19554;SDS011;9924;50.828;6.440;2023-08-07T07:20:03;12.45;;;3.13;;
19554;SDS011;9924;50.828;6.440;2023-08-07T07:22:29;9.07;;;2.95;;
19554;SDS011;9924;50.828;6.440;2023-08-07T07:24:55;8.32;;;2.25;;
19554;SDS011;9924;50.828;6.440;2023-08-07T07:27:21;8.48;;;2.63;;
19554;SDS011;9924;50.828;6.440;2023-08-07T07:29:47;10.80;;;2.30;;
19554;SDS011;9924;50.828;6.440;2023-08-07T07:32:13;11.30;;;2.08;;
19554;SDS011;9924;50.828;6.440;2023-08-07T07:34:39;12.07;;;2.97;;
19554;SDS011;9924;50.828;6.440;2023-08-07T07:37:05;5.32;;;2.30;;
19554;SDS011;9924;50.828;6.440;2023-08-07T07:39:30;7.57;;;2.50;;
19554;SDS011;9924;50.828;6.440;2023-08-07T07:41:56;15.25;;;2.65;;
19554;SDS011;9924;50.828;6.440;2023-08-07T07:44:22;12.07;;;3.05;;
19554;SDS011;9924;50.828;6.440;2023-08-07T07:46:47;8.20;;;2.45;;
19554;SDS011;9924;50.828;6.440;2023-08-07T07:49:13;6.63;;;2.67;;
19554;SDS011;9924;50.828;6.440;2023-08-07T07:51:39;9.60;;;3.08;;
19554;SDS011;9924;50.828;6.440;2023-08-07T07:54:05;10.30;;;2.83;;
19554;SDS011;9924;50.828;6.440;2023-08-07T07:56:31;9.60;;;2.63;;
19554;SDS011;9924;50.828;6.440;2023-08-07T07:58:57;9.27;;;2.55;;
19554;SDS011;9924;50.828;6.440;2023-08-07T08:01:23;12.25;;;3.03;;
19554;SDS011;9924;50.828;6.440;2023-08-07T08:03:48;9.02;;;2.47;;
19554;SDS011;9924;50.828;6.440;2023-08-07T08:06:14;10.40;;;2.42;;
19554;SDS011;9924;50.828;6.440;2023-08-07T08:08:40;8.73;;;2.85;;
19554;SDS011;9924;50.828;6.440;2023-08-07T08:11:07;7.88;;;2.38;;
19554;SDS011;9924;50.828;6.440;2023-08-07T08:13:33;8.45;;;2.90;;
19554;SDS011;9924;50.828;6.440;2023-08-07T08:16:00;6.15;;;2.55;;
19554;SDS011;9924;50.828;6.440;2023-08-07T08:18:26;8.15;;;2.90;;
19554;SDS011;9924;50.828;6.440;2023-08-07T08:20:53;10.25;;;2.50;;
19554;SDS011;9924;50.828;6.440;2023-08-07T08:23:19;9.00;;;2.25;;
19554;SDS011;9924;50.828;6.440;2023-08-07T08:25:45;8.27;;;2.17;;
19554;SDS011;9924;50.828;6.440;2023-08-07T08:28:10;8.63;;;2.92;;
19554;SDS011;9924;50.828;6.440;2023-08-07T08:30:36;8.55;;;2.80;;
19554;SDS011;9924;50.828;6.440;2023-08-07T08:33:02;8.27;;;2.60;;
19554;SDS011;9924;50.828;6.440;2023-08-07T08:35:28;8.60;;;2.50;;
19554;SDS011;9924;50.828;6.440;2023-08-07T08:37:53;7.10;;;2.45;;
19554;SDS011;9924;50.828;6.440;2023-08-07T08:40:19;7.15;;;2.67;;
19554;SDS011;9924;50.828;6.440;2023-08-07T08:42:45;5.78;;;2.42;;
19554;SDS011;9924;50.828;6.440;2023-08-07T08:45:12;7.05;;;2.17;;
19554;SDS011;9924;50.828;6.440;2023-08-07T08:47:39;9.75;;;2.88;;
19554;SDS011;9924;50.828;6.440;2023-08-07T08:50:07;14.02;;;3.50;;
19554;SDS011;9924;50.828;6.440;2023-08-07T08:52:37;7.45;;;2.45;;
19554;SDS011;9924;50.828;6.440;2023-08-07T08:55:06;5.63;;;1.88;;
19554;SDS011;9924;50.828;6.440;2023-08-07T08:57:33;8.82;;;2.60;;
19554;SDS011;9924;50.828;6.440;2023-08-07T09:00:00;12.07;;;2.75;;
19554;SDS011;9924;50.828;6.440;2023-08-07T09:02:32;10.00;;;2.45;;
19554;SDS011;9924;50.828;6.440;2023-08-07T09:04:58;7.35;;;2.42;;
19554;SDS011;9924;50.828;6.440;2023-08-07T09:07:24;9.23;;;2.30;;
19554;SDS011;9924;50.828;6.440;2023-08-07T09:09:51;14.10;;;3.15;;
19554;SDS011;9924;50.828;6.440;2023-08-07T09:12:22;6.53;;;2.80;;
19554;SDS011;9924;50.828;6.440;2023-08-07T09:14:53;11.55;;;2.65;;
19554;SDS011;9924;50.828;6.440;2023-08-07T09:17:24;9.35;;;2.20;;
19554;SDS011;9924;50.828;6.440;2023-08-07T09:19:56;10.68;;;2.60;;
19554;SDS011;9924;50.828;6.440;2023-08-07T09:22:23;7.47;;;2.58;;
19554;SDS011;9924;50.828;6.440;2023-08-07T09:24:49;8.90;;;2.10;;
19554;SDS011;9924;50.828;6.440;2023-08-07T09:27:15;9.80;;;2.50;;
19554;SDS011;9924;50.828;6.440;2023-08-07T09:29:40;6.30;;;2.50;;
19554;SDS011;9924;50.828;6.440;2023-08-07T09:32:14;5.53;;;1.88;;
19554;SDS011;9924;50.828;6.440;2023-08-07T09:34:40;7.22;;;1.90;;
19554;SDS011;9924;50.828;6.440;2023-08-07T09:37:06;12.30;;;2.35;;
19554;SDS011;9924;50.828;6.440;2023-08-07T09:39:33;8.13;;;2.00;;
19554;SDS011;9924;50.828;6.440;2023-08-07T09:42:01;6.75;;;1.92;;
19554;SDS011;9924;50.828;6.440;2023-08-07T09:44:34;6.57;;;2.25;;
19554;SDS011;9924;50.828;6.440;2023-08-07T09:47:12;5.05;;;2.08;;
19554;SDS011;9924;50.828;6.440;2023-08-07T09:49:38;8.43;;;2.33;;
19554;SDS011;9924;50.828;6.440;2023-08-07T09:52:05;6.63;;;2.10;;
19554;SDS011;9924;50.828;6.440;2023-08-07T09:54:32;6.47;;;2.10;;
19554;SDS011;9924;50.828;6.440;2023-08-07T09:56:59;8.48;;;1.95;;
19554;SDS011;9924;50.828;6.440;2023-08-07T09:59:26;7.20;;;2.47;;
19554;SDS011;9924;50.828;6.440;2023-08-07T10:01:55;8.52;;;2.80;;
19554;SDS011;9924;50.828;6.440;2023-08-07T10:04:21;8.38;;;2.10;;
19554;SDS011;9924;50.828;6.440;2023-08-07T10:06:47;7.43;;;2.58;;
19554;SDS011;9924;50.828;6.440;2023-08-07T10:09:14;9.00;;;2.50;;
19554;SDS011;9924;50.828;6.440;2023-08-07T10:11:40;4.32;;;1.88;;
19554;SDS011;9924;50.828;6.440;2023-08-07T10:14:06;8.30;;;2.13;;
19554;SDS011;9924;50.828;6.440;2023-08-07T10:16:33;5.63;;;1.80;;
19554;SDS011;9924;50.828;6.440;2023-08-07T10:19:04;7.20;;;2.10;;
19554;SDS011;9924;50.828;6.440;2023-08-07T10:21:30;4.75;;;1.90;;
19554;SDS011;9924;50.828;6.440;2023-08-07T10:24:01;10.77;;;2.10;;
19554;SDS011;9924;50.828;6.440;2023-08-07T10:26:29;8.52;;;2.22;;
19554;SDS011;9924;50.828;6.440;2023-08-07T10:28:57;5.57;;;2.00;;
19554;SDS011;9924;50.828;6.440;2023-08-07T10:31:26;4.05;;;1.67;;
19554;SDS011;9924;50.828;6.440;2023-08-07T10:33:52;6.93;;;2.20;;
19554;SDS011;9924;50.828;6.440;2023-08-07T10:36:18;5.47;;;2.13;;
19554;SDS011;9924;50.828;6.440;2023-08-07T10:38:44;5.53;;;2.15;;
19554;SDS011;9924;50.828;6.440;2023-08-07T10:41:12;9.38;;;2.15;;
19554;SDS011;9924;50.828;6.440;2023-08-07T10:43:43;5.82;;;2.10;;
19554;SDS011;9924;50.828;6.440;2023-08-07T10:51:13;6.03;;;2.20;;
19554;SDS011;9924;50.828;6.440;2023-08-07T10:53:40;7.78;;;1.98;;
19554;SDS011;9924;50.828;6.440;2023-08-07T10:56:09;3.40;;;1.77;;
19554;SDS011;9924;50.828;6.440;2023-08-07T10:58:54;6.22;;;1.90;;
19554;SDS011;9924;50.828;6.440;2023-08-07T11:01:41;8.30;;;2.08;;
19554;SDS011;9924;50.828;6.440;2023-08-07T11:04:13;3.42;;;1.52;;
19554;SDS011;9924;50.828;6.440;2023-08-07T11:06:40;5.60;;;1.70;;
19554;SDS011;9924;50.828;6.440;2023-08-07T11:09:07;8.13;;;2.35;;
19554;SDS011;9924;50.828;6.440;2023-08-07T11:11:46;3.00;;;1.52;;
19554;SDS011;9924;50.828;6.440;2023-08-07T11:14:17;3.70;;;1.70;;
19554;SDS011;9924;50.828;6.440;2023-08-07T11:16:44;3.72;;;1.60;;
19554;SDS011;9924;50.828;6.440;2023-08-07T11:19:12;5.43;;;1.75;;
19554;SDS011;9924;50.828;6.440;2023-08-07T11:21:39;5.50;;;2.05;;
19554;SDS011;9924;50.828;6.440;2023-08-07T11:24:05;4.65;;;1.83;;
19554;SDS011;9924;50.828;6.440;2023-08-07T11:26:31;7.30;;;1.80;;
19554;SDS011;9924;50.828;6.440;2023-08-07T11:28:57;5.25;;;2.10;;
19554;SDS011;9924;50.828;6.440;2023-08-07T11:31:23;5.13;;;1.52;;
19554;SDS011;9924;50.828;6.440;2023-08-07T11:33:50;3.85;;;1.83;;
19554;SDS011;9924;50.828;6.440;2023-08-07T11:36:20;6.55;;;1.98;;
19554;SDS011;9924;50.828;6.440;2023-08-07T11:38:46;4.43;;;1.92;;
19554;SDS011;9924;50.828;6.440;2023-08-07T11:41:13;9.27;;;2.13;;
19554;SDS011;9924;50.828;6.440;2023-08-07T11:43:40;7.78;;;2.03;;
19554;SDS011;9924;50.828;6.440;2023-08-07T11:46:08;5.32;;;1.98;;
19554;SDS011;9924;50.828;6.440;2023-08-07T11:48:38;6.78;;;2.67;;
19554;SDS011;9924;50.828;6.440;2023-08-07T11:51:05;5.80;;;1.88;;
19554;SDS011;9924;50.828;6.440;2023-08-07T11:53:38;4.78;;;1.50;;
19554;SDS011;9924;50.828;6.440;2023-08-07T11:56:11;5.88;;;1.98;;
19554;SDS011;9924;50.828;6.440;2023-08-07T11:58:44;6.13;;;1.90;;
19554;SDS011;9924;50.828;6.440;2023-08-07T12:01:17;5.10;;;2.30;;
19554;SDS011;9924;50.828;6.440;2023-08-07T12:06:31;3.92;;;2.03;;
19554;SDS011;9924;50.828;6.440;2023-08-07T12:08:57;6.97;;;2.20;;
19554;SDS011;9924;50.828;6.440;2023-08-07T12:11:24;6.78;;;1.98;;
19554;SDS011;9924;50.828;6.440;2023-08-07T12:13:50;4.07;;;1.98;;
19554;SDS011;9924;50.828;6.440;2023-08-07T12:16:16;7.43;;;1.92;;
19554;SDS011;9924;50.828;6.440;2023-08-07T12:18:49;8.00;;;1.98;;
19554;SDS011;9924;50.828;6.440;2023-08-07T12:21:25;3.78;;;1.70;;
19554;SDS011;9924;50.828;6.440;2023-08-07T12:23:54;6.13;;;1.80;;
19554;SDS011;9924;50.828;6.440;2023-08-07T12:26:21;8.05;;;2.28;;
19554;SDS011;9924;50.828;6.440;2023-08-07T12:28:47;4.35;;;2.00;;
19554;SDS011;9924;50.828;6.440;2023-08-07T12:31:12;8.93;;;2.00;;
19554;SDS011;9924;50.828;6.440;2023-08-07T12:33:38;5.47;;;2.30;;
19554;SDS011;9924;50.828;6.440;2023-08-07T12:36:04;5.93;;;2.65;;
19554;SDS011;9924;50.828;6.440;2023-08-07T12:38:30;9.32;;;3.95;;
19554;SDS011;9924;50.828;6.440;2023-08-07T12:40:56;17.45;;;8.48;;
19554;SDS011;9924;50.828;6.440;2023-08-07T12:43:22;16.35;;;9.27;;
19554;SDS011;9924;50.828;6.440;2023-08-07T12:45:48;21.13;;;11.57;;
19554;SDS011;9924;50.828;6.440;2023-08-07T12:48:13;9.88;;;4.82;;
19554;SDS011;9924;50.828;6.440;2023-08-07T12:50:39;14.88;;;7.72;;
19554;SDS011;9924;50.828;6.440;2023-08-07T12:53:05;10.07;;;5.65;;
19554;SDS011;9924;50.828;6.440;2023-08-07T12:55:32;11.05;;;4.70;;
19554;SDS011;9924;50.828;6.440;2023-08-07T12:57:58;8.95;;;4.20;;
19554;SDS011;9924;50.828;6.440;2023-08-07T13:00:24;6.40;;;2.80;;
19554;SDS011;9924;50.828;6.440;2023-08-07T13:02:51;9.70;;;3.03;;
19554;SDS011;9924;50.828;6.440;2023-08-07T13:05:18;9.20;;;2.58;;
19554;SDS011;9924;50.828;6.440;2023-08-07T13:07:45;9.90;;;2.42;;
19554;SDS011;9924;50.828;6.440;2023-08-07T13:10:12;3.58;;;2.13;;
19554;SDS011;9924;50.828;6.440;2023-08-07T13:12:40;3.97;;;1.85;;
19554;SDS011;9924;50.828;6.440;2023-08-07T13:15:07;7.15;;;2.10;;
19554;SDS011;9924;50.828;6.440;2023-08-07T13:17:34;2.83;;;1.55;;
19554;SDS011;9924;50.828;6.440;2023-08-07T13:20:01;5.75;;;1.80;;
19554;SDS011;9924;50.828;6.440;2023-08-07T13:22:32;4.43;;;1.88;;
19554;SDS011;9924;50.828;6.440;2023-08-07T13:25:08;5.35;;;1.88;;
19554;SDS011;9924;50.828;6.440;2023-08-07T13:27:35;7.05;;;2.13;;
19554;SDS011;9924;50.828;6.440;2023-08-07T13:30:02;6.57;;;2.05;;
19554;SDS011;9924;50.828;6.440;2023-08-07T13:32:28;8.70;;;1.90;;
19554;SDS011;9924;50.828;6.440;2023-08-07T13:34:54;4.75;;;2.00;;
19554;SDS011;9924;50.828;6.440;2023-08-07T13:37:19;7.03;;;1.65;;
19554;SDS011;9924;50.828;6.440;2023-08-07T13:39:46;4.03;;;1.80;;
19554;SDS011;9924;50.828;6.440;2023-08-07T13:42:14;4.25;;;1.95;;
19554;SDS011;9924;50.828;6.440;2023-08-07T13:44:40;6.70;;;1.83;;
19554;SDS011;9924;50.828;6.440;2023-08-07T13:47:06;6.50;;;1.88;;
19554;SDS011;9924;50.828;6.440;2023-08-07T13:49:32;4.88;;;1.80;;
19554;SDS011;9924;50.828;6.440;2023-08-07T13:51:58;5.18;;;1.90;;
19554;SDS011;9924;50.828;6.440;2023-08-07T13:54:23;8.05;;;2.00;;
19554;SDS011;9924;50.828;6.440;2023-08-07T13:56:49;4.38;;;1.67;;
19554;SDS011;9924;50.828;6.440;2023-08-07T13:59:15;4.43;;;1.73;;
19554;SDS011;9924;50.828;6.440;2023-08-07T14:01:41;4.47;;;1.73;;
19554;SDS011;9924;50.828;6.440;2023-08-07T14:04:07;6.68;;;1.80;;
19554;SDS011;9924;50.828;6.440;2023-08-07T14:06:33;2.72;;;1.58;;
19554;SDS011;9924;50.828;6.440;2023-08-07T14:08:58;5.80;;;1.83;;
19554;SDS011;9924;50.828;6.440;2023-08-07T14:11:24;2.85;;;1.45;;
19554;SDS011;9924;50.828;6.440;2023-08-07T14:13:55;2.42;;;1.50;;
19554;SDS011;9924;50.828;6.440;2023-08-07T14:16:22;4.18;;;2.10;;
19554;SDS011;9924;50.828;6.440;2023-08-07T14:18:47;7.97;;;1.92;;
19554;SDS011;9924;50.828;6.440;2023-08-07T14:21:13;2.60;;;1.42;;
19554;SDS011;9924;50.828;6.440;2023-08-07T14:23:39;1.98;;;1.23;;
19554;SDS011;9924;50.828;6.440;2023-08-07T14:26:07;1.95;;;0.90;;
19554;SDS011;9924;50.828;6.440;2023-08-07T14:28:33;4.95;;;1.55;;
19554;SDS011;9924;50.828;6.440;2023-08-07T14:30:58;6.68;;;1.40;;
19554;SDS011;9924;50.828;6.440;2023-08-07T14:33:24;2.85;;;1.30;;
19554;SDS011;9924;50.828;6.440;2023-08-07T14:35:51;3.28;;;1.42;;
19554;SDS011;9924;50.828;6.440;2023-08-07T14:38:17;2.00;;;1.10;;
19554;SDS011;9924;50.828;6.440;2023-08-07T14:40:43;3.83;;;1.55;;
19554;SDS011;9924;50.828;6.440;2023-08-07T14:43:09;2.40;;;1.00;;
19554;SDS011;9924;50.828;6.440;2023-08-07T14:45:35;2.08;;;1.10;;
19554;SDS011;9924;50.828;6.440;2023-08-07T14:48:02;3.97;;;1.50;;
19554;SDS011;9924;50.828;6.440;2023-08-07T14:50:28;2.97;;;1.48;;
19554;SDS011;9924;50.828;6.440;2023-08-07T14:52:53;2.65;;;1.40;;
19554;SDS011;9924;50.828;6.440;2023-08-07T14:55:19;3.53;;;1.17;;
19554;SDS011;9924;50.828;6.440;2023-08-07T14:57:45;1.73;;;1.15;;
19554;SDS011;9924;50.828;6.440;2023-08-07T15:00:11;2.83;;;1.33;;
19554;SDS011;9924;50.828;6.440;2023-08-07T15:02:38;1.95;;;1.42;;
19554;SDS011;9924;50.828;6.440;2023-08-07T15:05:05;2.60;;;1.20;;